sensor_id;sensor_type;location;lat;lon;timestamp;P1;durP1;ratioP1;P2;durP2;ratioP2
71777;SDS011;59609;52.430;4.668;2023-02-10T00:02:24;12.85;;;3.30;;
71777;SDS011;59609;52.430;4.668;2023-02-10T00:04:49;11.70;;;3.05;;
71777;SDS011;59609;52.430;4.668;2023-02-10T00:07:16;11.63;;;3.40;;
71777;SDS011;59609;52.430;4.668;2023-02-10T00:09:41;9.90;;;2.78;;
71777;SDS011;59609;52.430;4.668;2023-02-10T00:12:06;11.07;;;3.73;;
71777;SDS011;59609;52.430;4.668;2023-02-10T00:14:33;9.57;;;3.08;;
71777;SDS011;59609;52.430;4.668;2023-02-10T00:16:58;9.87;;;2.83;;
71777;SDS011;59609;52.430;4.668;2023-02-10T00:19:25;8.52;;;2.90;;
71777;SDS011;59609;52.430;4.668;2023-02-10T00:21:50;7.90;;;2.55;;
71777;SDS011;59609;52.430;4.668;2023-02-10T00:24:15;15.45;;;2.90;;
71777;SDS011;59609;52.430;4.668;2023-02-10T00:26:41;10.50;;;2.87;;
71777;SDS011;59609;52.430;4.668;2023-02-10T00:29:06;6.67;;;2.30;;
71777;SDS011;59609;52.430;4.668;2023-02-10T00:31:31;11.53;;;2.50;;
71777;SDS011;59609;52.430;4.668;2023-02-10T00:33:56;10.27;;;2.57;;
71777;SDS011;59609;52.430;4.668;2023-02-10T00:36:22;5.13;;;2.30;;
71777;SDS011;59609;52.430;4.668;2023-02-10T00:38:49;5.80;;;2.38;;
71777;SDS011;59609;52.430;4.668;2023-02-10T00:41:15;9.70;;;2.20;;
71777;SDS011;59609;52.430;4.668;2023-02-10T00:43:41;9.52;;;2.00;;
71777;SDS011;59609;52.430;4.668;2023-02-10T00:46:07;9.43;;;2.30;;
71777;SDS011;59609;52.430;4.668;2023-02-10T00:48:33;15.38;;;2.10;;
71777;SDS011;59609;52.430;4.668;2023-02-10T00:50:58;12.30;;;1.80;;
71777;SDS011;59609;52.430;4.668;2023-02-10T00:53:23;11.10;;;2.15;;
71777;SDS011;59609;52.430;4.668;2023-02-10T00:55:48;8.60;;;1.60;;
71777;SDS011;59609;52.430;4.668;2023-02-10T00:58:14;8.17;;;1.93;;
71777;SDS011;59609;52.430;4.668;2023-02-10T01:00:39;9.83;;;2.47;;
71777;SDS011;59609;52.430;4.668;2023-02-10T01:03:04;6.03;;;2.23;;
71777;SDS011;59609;52.430;4.668;2023-02-10T01:05:29;9.00;;;1.70;;
71777;SDS011;59609;52.430;4.668;2023-02-10T01:07:54;11.03;;;1.60;;
71777;SDS011;59609;52.430;4.668;2023-02-10T01:10:20;5.57;;;1.20;;
71777;SDS011;59609;52.430;4.668;2023-02-10T01:12:46;10.27;;;1.58;;
71777;SDS011;59609;52.430;4.668;2023-02-10T01:15:11;8.07;;;1.50;;
71777;SDS011;59609;52.430;4.668;2023-02-10T01:17:36;10.77;;;1.83;;
71777;SDS011;59609;52.430;4.668;2023-02-10T01:20:02;6.60;;;1.48;;
71777;SDS011;59609;52.430;4.668;2023-02-10T01:22:28;13.77;;;1.70;;
71777;SDS011;59609;52.430;4.668;2023-02-10T01:24:53;10.33;;;1.60;;
71777;SDS011;59609;52.430;4.668;2023-02-10T01:27:18;9.93;;;1.57;;
71777;SDS011;59609;52.430;4.668;2023-02-10T01:29:43;5.00;;;1.60;;
71777;SDS011;59609;52.430;4.668;2023-02-10T01:32:09;10.27;;;1.47;;
71777;SDS011;59609;52.430;4.668;2023-02-10T01:34:35;3.73;;;1.50;;
71777;SDS011;59609;52.430;4.668;2023-02-10T01:37:00;9.27;;;1.50;;
71777;SDS011;59609;52.430;4.668;2023-02-10T01:39:26;9.57;;;1.43;;
71777;SDS011;59609;52.430;4.668;2023-02-10T01:41:51;9.53;;;1.60;;
71777;SDS011;59609;52.430;4.668;2023-02-10T01:46:44;10.27;;;1.50;;
71777;SDS011;59609;52.430;4.668;2023-02-10T01:49:10;8.80;;;1.80;;
71777;SDS011;59609;52.430;4.668;2023-02-10T01:51:48;13.43;;;1.77;;
71777;SDS011;59609;52.430;4.668;2023-02-10T01:54:16;12.65;;;1.60;;
71777;SDS011;59609;52.430;4.668;2023-02-10T01:56:43;15.93;;;1.90;;
71777;SDS011;59609;52.430;4.668;2023-02-10T01:59:08;13.20;;;1.60;;
71777;SDS011;59609;52.430;4.668;2023-02-10T02:01:33;10.57;;;1.75;;
71777;SDS011;59609;52.430;4.668;2023-02-10T02:03:59;8.17;;;1.53;;
71777;SDS011;59609;52.430;4.668;2023-02-10T02:06:25;12.90;;;1.83;;
71777;SDS011;59609;52.430;4.668;2023-02-10T02:08:50;7.17;;;1.47;;
71777;SDS011;59609;52.430;4.668;2023-02-10T02:19:30;8.13;;;1.40;;
71777;SDS011;59609;52.430;4.668;2023-02-10T02:24:54;14.32;;;1.48;;
71777;SDS011;59609;52.430;4.668;2023-02-10T02:30:11;8.73;;;2.65;;
71777;SDS011;59609;52.430;4.668;2023-02-10T02:32:42;7.15;;;1.42;;
71777;SDS011;59609;52.430;4.668;2023-02-10T02:35:10;3.88;;;1.40;;
71777;SDS011;59609;52.430;4.668;2023-02-10T02:37:40;10.90;;;1.80;;
71777;SDS011;59609;52.430;4.668;2023-02-10T02:40:07;8.30;;;1.90;;
71777;SDS011;59609;52.430;4.668;2023-02-10T02:42:32;8.25;;;1.40;;
71777;SDS011;59609;52.430;4.668;2023-02-10T02:50:33;11.32;;;1.48;;
71777;SDS011;59609;52.430;4.668;2023-02-10T02:58:13;8.00;;;1.30;;
71777;SDS011;59609;52.430;4.668;2023-02-10T03:00:38;9.70;;;1.77;;
71777;SDS011;59609;52.430;4.668;2023-02-10T03:03:05;10.40;;;1.13;;
71777;SDS011;59609;52.430;4.668;2023-02-10T03:05:31;14.88;;;1.50;;
71777;SDS011;59609;52.430;4.668;2023-02-10T03:07:57;7.60;;;1.85;;
71777;SDS011;59609;52.430;4.668;2023-02-10T03:10:22;21.07;;;2.43;;
71777;SDS011;59609;52.430;4.668;2023-02-10T03:12:47;9.02;;;1.77;;
71777;SDS011;59609;52.430;4.668;2023-02-10T03:15:13;7.25;;;1.35;;
71777;SDS011;59609;52.430;4.668;2023-02-10T03:17:38;10.95;;;1.85;;
71777;SDS011;59609;52.430;4.668;2023-02-10T03:20:03;16.00;;;2.08;;
71777;SDS011;59609;52.430;4.668;2023-02-10T03:22:29;7.80;;;1.73;;
71777;SDS011;59609;52.430;4.668;2023-02-10T03:24:54;10.60;;;1.47;;
71777;SDS011;59609;52.430;4.668;2023-02-10T03:27:19;9.10;;;1.70;;
71777;SDS011;59609;52.430;4.668;2023-02-10T03:29:44;5.17;;;1.80;;
71777;SDS011;59609;52.430;4.668;2023-02-10T03:32:10;13.23;;;1.87;;
71777;SDS011;59609;52.430;4.668;2023-02-10T03:34:35;4.90;;;1.20;;
71777;SDS011;59609;52.430;4.668;2023-02-10T03:37:00;9.20;;;1.97;;
71777;SDS011;59609;52.430;4.668;2023-02-10T03:39:26;7.97;;;1.75;;
71777;SDS011;59609;52.430;4.668;2023-02-10T03:41:51;8.50;;;1.85;;
71777;SDS011;59609;52.430;4.668;2023-02-10T03:44:18;8.73;;;1.60;;
71777;SDS011;59609;52.430;4.668;2023-02-10T03:46:43;12.23;;;1.90;;
71777;SDS011;59609;52.430;4.668;2023-02-10T03:49:08;5.67;;;1.50;;
71777;SDS011;59609;52.430;4.668;2023-02-10T03:51:33;10.87;;;1.70;;
71777;SDS011;59609;52.430;4.668;2023-02-10T03:53:59;12.13;;;1.83;;
71777;SDS011;59609;52.430;4.668;2023-02-10T03:56:24;7.80;;;1.73;;
71777;SDS011;59609;52.430;4.668;2023-02-10T03:58:49;11.40;;;1.60;;
71777;SDS011;59609;52.430;4.668;2023-02-10T04:01:15;13.13;;;2.00;;
71777;SDS011;59609;52.430;4.668;2023-02-10T04:03:41;12.45;;;1.65;;
71777;SDS011;59609;52.430;4.668;2023-02-10T04:06:06;5.32;;;1.48;;
71777;SDS011;59609;52.430;4.668;2023-02-10T04:08:32;20.02;;;2.25;;
71777;SDS011;59609;52.430;4.668;2023-02-10T04:10:57;12.07;;;1.70;;
71777;SDS011;59609;52.430;4.668;2023-02-10T04:13:22;13.47;;;1.90;;
71777;SDS011;59609;52.430;4.668;2023-02-10T04:15:48;9.90;;;2.80;;
71777;SDS011;59609;52.430;4.668;2023-02-10T04:18:13;13.70;;;2.10;;
71777;SDS011;59609;52.430;4.668;2023-02-10T04:20:38;9.90;;;2.20;;
71777;SDS011;59609;52.430;4.668;2023-02-10T04:23:03;13.93;;;2.63;;
71777;SDS011;59609;52.430;4.668;2023-02-10T04:25:29;10.87;;;2.03;;
71777;SDS011;59609;52.430;4.668;2023-02-10T04:27:54;12.37;;;2.23;;
71777;SDS011;59609;52.430;4.668;2023-02-10T04:30:19;21.97;;;2.43;;
71777;SDS011;59609;52.430;4.668;2023-02-10T04:32:44;14.15;;;2.53;;
71777;SDS011;59609;52.430;4.668;2023-02-10T04:35:10;13.30;;;1.70;;
71777;SDS011;59609;52.430;4.668;2023-02-10T04:37:35;18.57;;;2.40;;
71777;SDS011;59609;52.430;4.668;2023-02-10T04:40:00;15.07;;;2.30;;
71777;SDS011;59609;52.430;4.668;2023-02-10T04:42:25;18.07;;;1.93;;
71777;SDS011;59609;52.430;4.668;2023-02-10T04:44:55;15.90;;;2.20;;
71777;SDS011;59609;52.430;4.668;2023-02-10T04:47:20;10.27;;;1.80;;
71777;SDS011;59609;52.430;4.668;2023-02-10T04:49:45;14.83;;;2.63;;
71777;SDS011;59609;52.430;4.668;2023-02-10T04:52:11;14.73;;;2.03;;
71777;SDS011;59609;52.430;4.668;2023-02-10T04:54:36;16.57;;;2.53;;
71777;SDS011;59609;52.430;4.668;2023-02-10T04:57:01;10.73;;;2.90;;
71777;SDS011;59609;52.430;4.668;2023-02-10T04:59:26;10.60;;;3.03;;
71777;SDS011;59609;52.430;4.668;2023-02-10T05:01:51;18.87;;;2.50;;
71777;SDS011;59609;52.430;4.668;2023-02-10T05:04:17;10.57;;;2.20;;
71777;SDS011;59609;52.430;4.668;2023-02-10T05:06:42;15.43;;;2.47;;
71777;SDS011;59609;52.430;4.668;2023-02-10T05:09:07;17.10;;;2.27;;
71777;SDS011;59609;52.430;4.668;2023-02-10T05:11:32;9.50;;;2.67;;
71777;SDS011;59609;52.430;4.668;2023-02-10T05:13:57;13.00;;;2.50;;
71777;SDS011;59609;52.430;4.668;2023-02-10T05:16:23;16.88;;;3.22;;
71777;SDS011;59609;52.430;4.668;2023-02-10T05:18:49;15.70;;;2.57;;
71777;SDS011;59609;52.430;4.668;2023-02-10T05:21:14;7.30;;;2.07;;
71777;SDS011;59609;52.430;4.668;2023-02-10T05:23:39;17.20;;;2.77;;
71777;SDS011;59609;52.430;4.668;2023-02-10T05:26:05;12.50;;;2.92;;
71777;SDS011;59609;52.430;4.668;2023-02-10T05:28:30;11.88;;;2.58;;
71777;SDS011;59609;52.430;4.668;2023-02-10T05:30:55;16.90;;;2.60;;
71777;SDS011;59609;52.430;4.668;2023-02-10T05:33:20;21.23;;;3.03;;
71777;SDS011;59609;52.430;4.668;2023-02-10T05:35:46;11.07;;;2.73;;
71777;SDS011;59609;52.430;4.668;2023-02-10T05:38:11;12.90;;;2.87;;
71777;SDS011;59609;52.430;4.668;2023-02-10T05:40:36;11.80;;;3.20;;
71777;SDS011;59609;52.430;4.668;2023-02-10T05:43:02;12.75;;;2.25;;
71777;SDS011;59609;52.430;4.668;2023-02-10T05:45:27;12.27;;;2.63;;
71777;SDS011;59609;52.430;4.668;2023-02-10T05:47:52;15.00;;;3.60;;
71777;SDS011;59609;52.430;4.668;2023-02-10T05:50:18;12.63;;;2.90;;
71777;SDS011;59609;52.430;4.668;2023-02-10T05:52:43;11.23;;;2.35;;
71777;SDS011;59609;52.430;4.668;2023-02-10T05:55:09;13.15;;;2.55;;
71777;SDS011;59609;52.430;4.668;2023-02-10T05:57:34;12.60;;;2.97;;
71777;SDS011;59609;52.430;4.668;2023-02-10T05:59:59;13.83;;;3.00;;
71777;SDS011;59609;52.430;4.668;2023-02-10T06:02:24;14.10;;;3.13;;
71777;SDS011;59609;52.430;4.668;2023-02-10T06:04:50;19.67;;;3.15;;
71777;SDS011;59609;52.430;4.668;2023-02-10T06:07:15;16.90;;;3.33;;
71777;SDS011;59609;52.430;4.668;2023-02-10T06:09:41;11.30;;;2.70;;
71777;SDS011;59609;52.430;4.668;2023-02-10T06:12:06;14.82;;;2.80;;
71777;SDS011;59609;52.430;4.668;2023-02-10T06:14:31;15.57;;;2.90;;
71777;SDS011;59609;52.430;4.668;2023-02-10T06:16:57;13.27;;;2.93;;
71777;SDS011;59609;52.430;4.668;2023-02-10T06:19:22;13.83;;;3.33;;
71777;SDS011;59609;52.430;4.668;2023-02-10T06:21:47;14.93;;;3.80;;
71777;SDS011;59609;52.430;4.668;2023-02-10T06:24:13;13.40;;;3.03;;
71777;SDS011;59609;52.430;4.668;2023-02-10T06:26:38;13.00;;;3.40;;
71777;SDS011;59609;52.430;4.668;2023-02-10T06:29:03;16.77;;;3.83;;
71777;SDS011;59609;52.430;4.668;2023-02-10T06:31:28;13.50;;;3.73;;
71777;SDS011;59609;52.430;4.668;2023-02-10T06:33:54;16.83;;;3.57;;
71777;SDS011;59609;52.430;4.668;2023-02-10T06:36:19;14.57;;;4.47;;
71777;SDS011;59609;52.430;4.668;2023-02-10T06:38:44;15.25;;;3.42;;
71777;SDS011;59609;52.430;4.668;2023-02-10T06:41:09;16.23;;;4.17;;
71777;SDS011;59609;52.430;4.668;2023-02-10T06:43:35;12.33;;;2.90;;
71777;SDS011;59609;52.430;4.668;2023-02-10T06:46:00;18.13;;;4.23;;
71777;SDS011;59609;52.430;4.668;2023-02-10T06:48:25;12.80;;;3.60;;
71777;SDS011;59609;52.430;4.668;2023-02-10T06:50:51;23.55;;;4.10;;
71777;SDS011;59609;52.430;4.668;2023-02-10T06:53:17;10.85;;;4.00;;
71777;SDS011;59609;52.430;4.668;2023-02-10T06:55:42;19.57;;;4.30;;
71777;SDS011;59609;52.430;4.668;2023-02-10T06:58:08;15.53;;;3.90;;
71777;SDS011;59609;52.430;4.668;2023-02-10T07:00:33;12.15;;;3.63;;
71777;SDS011;59609;52.430;4.668;2023-02-10T07:02:59;18.48;;;4.25;;
71777;SDS011;59609;52.430;4.668;2023-02-10T07:05:24;26.48;;;5.63;;
71777;SDS011;59609;52.430;4.668;2023-02-10T07:07:50;13.93;;;4.25;;
71777;SDS011;59609;52.430;4.668;2023-02-10T07:10:18;17.45;;;4.40;;
71777;SDS011;59609;52.430;4.668;2023-02-10T07:12:44;18.95;;;4.57;;
71777;SDS011;59609;52.430;4.668;2023-02-10T07:15:11;14.57;;;3.75;;
71777;SDS011;59609;52.430;4.668;2023-02-10T07:17:36;15.33;;;4.30;;
71777;SDS011;59609;52.430;4.668;2023-02-10T07:20:02;14.07;;;4.13;;
71777;SDS011;59609;52.430;4.668;2023-02-10T07:22:28;22.15;;;4.78;;
71777;SDS011;59609;52.430;4.668;2023-02-10T07:24:53;18.45;;;4.05;;
71777;SDS011;59609;52.430;4.668;2023-02-10T07:27:18;16.87;;;4.10;;
71777;SDS011;59609;52.430;4.668;2023-02-10T07:29:44;14.75;;;5.10;;
71777;SDS011;59609;52.430;4.668;2023-02-10T07:32:09;22.00;;;4.50;;
71777;SDS011;59609;52.430;4.668;2023-02-10T07:34:34;15.83;;;4.37;;
71777;SDS011;59609;52.430;4.668;2023-02-10T07:37:00;24.42;;;4.68;;
71777;SDS011;59609;52.430;4.668;2023-02-10T07:39:26;18.70;;;5.15;;
71777;SDS011;59609;52.430;4.668;2023-02-10T07:41:52;11.90;;;3.97;;
71777;SDS011;59609;52.430;4.668;2023-02-10T07:44:17;21.52;;;4.38;;
71777;SDS011;59609;52.430;4.668;2023-02-10T07:46:44;16.92;;;4.63;;
71777;SDS011;59609;52.430;4.668;2023-02-10T07:49:09;25.47;;;5.00;;
71777;SDS011;59609;52.430;4.668;2023-02-10T07:51:34;20.07;;;4.60;;
71777;SDS011;59609;52.430;4.668;2023-02-10T07:53:59;18.05;;;5.07;;
71777;SDS011;59609;52.430;4.668;2023-02-10T07:56:25;16.30;;;5.33;;
71777;SDS011;59609;52.430;4.668;2023-02-10T07:58:50;15.80;;;5.60;;
71777;SDS011;59609;52.430;4.668;2023-02-10T08:01:15;17.60;;;5.17;;
71777;SDS011;59609;52.430;4.668;2023-02-10T08:03:40;22.43;;;5.60;;
71777;SDS011;59609;52.430;4.668;2023-02-10T08:06:06;18.30;;;5.00;;
71777;SDS011;59609;52.430;4.668;2023-02-10T08:08:32;22.33;;;5.82;;
71777;SDS011;59609;52.430;4.668;2023-02-10T08:10:57;18.98;;;5.70;;
71777;SDS011;59609;52.430;4.668;2023-02-10T08:13:23;22.53;;;5.70;;
71777;SDS011;59609;52.430;4.668;2023-02-10T08:15:49;23.55;;;6.07;;
71777;SDS011;59609;52.430;4.668;2023-02-10T08:18:14;20.63;;;6.05;;
71777;SDS011;59609;52.430;4.668;2023-02-10T08:20:39;18.97;;;6.20;;
71777;SDS011;59609;52.430;4.668;2023-02-10T08:23:15;20.98;;;6.35;;
71777;SDS011;59609;52.430;4.668;2023-02-10T08:25:40;20.08;;;6.40;;
71777;SDS011;59609;52.430;4.668;2023-02-10T08:28:06;26.13;;;6.57;;
71777;SDS011;59609;52.430;4.668;2023-02-10T08:30:31;22.57;;;6.27;;
71777;SDS011;59609;52.430;4.668;2023-02-10T08:32:56;24.47;;;6.83;;
71777;SDS011;59609;52.430;4.668;2023-02-10T08:35:21;17.50;;;6.47;;
71777;SDS011;59609;52.430;4.668;2023-02-10T08:37:47;25.53;;;7.43;;
71777;SDS011;59609;52.430;4.668;2023-02-10T08:40:12;22.13;;;6.43;;
71777;SDS011;59609;52.430;4.668;2023-02-10T08:42:37;29.50;;;7.83;;
71777;SDS011;59609;52.430;4.668;2023-02-10T08:45:02;21.80;;;6.90;;
71777;SDS011;59609;52.430;4.668;2023-02-10T08:47:28;13.95;;;6.53;;
71777;SDS011;59609;52.430;4.668;2023-02-10T08:49:53;22.87;;;6.90;;
71777;SDS011;59609;52.430;4.668;2023-02-10T08:52:18;18.17;;;6.53;;
71777;SDS011;59609;52.430;4.668;2023-02-10T08:54:45;21.27;;;7.15;;
71777;SDS011;59609;52.430;4.668;2023-02-10T08:57:11;17.87;;;6.00;;
71777;SDS011;59609;52.430;4.668;2023-02-10T08:59:36;20.93;;;6.00;;
71777;SDS011;59609;52.430;4.668;2023-02-10T09:02:01;10.90;;;5.07;;
71777;SDS011;59609;52.430;4.668;2023-02-10T09:04:27;12.20;;;5.22;;
71777;SDS011;59609;52.430;4.668;2023-02-10T09:06:52;16.48;;;5.63;;
71777;SDS011;59609;52.430;4.668;2023-02-10T09:09:19;19.65;;;6.75;;
71777;SDS011;59609;52.430;4.668;2023-02-10T09:11:47;14.80;;;5.45;;
71777;SDS011;59609;52.430;4.668;2023-02-10T09:14:12;17.50;;;5.20;;
71777;SDS011;59609;52.430;4.668;2023-02-10T09:16:37;15.07;;;5.37;;
71777;SDS011;59609;52.430;4.668;2023-02-10T09:19:03;17.23;;;5.47;;
71777;SDS011;59609;52.430;4.668;2023-02-10T09:21:29;17.50;;;4.97;;
71777;SDS011;59609;52.430;4.668;2023-02-10T09:23:54;13.50;;;5.55;;
71777;SDS011;59609;52.430;4.668;2023-02-10T09:26:20;11.60;;;5.00;;
71777;SDS011;59609;52.430;4.668;2023-02-10T09:28:45;12.83;;;5.63;;
71777;SDS011;59609;52.430;4.668;2023-02-10T09:31:11;22.43;;;5.70;;
71777;SDS011;59609;52.430;4.668;2023-02-10T09:33:37;14.73;;;4.15;;
71777;SDS011;59609;52.430;4.668;2023-02-10T09:36:02;15.77;;;4.13;;
71777;SDS011;59609;52.430;4.668;2023-02-10T09:38:28;15.68;;;4.70;;
71777;SDS011;59609;52.430;4.668;2023-02-10T09:46:32;14.65;;;5.32;;
71777;SDS011;59609;52.430;4.668;2023-02-10T09:53:56;14.52;;;4.53;;
71777;SDS011;59609;52.430;4.668;2023-02-10T09:56:21;10.98;;;4.75;;
71777;SDS011;59609;52.430;4.668;2023-02-10T09:58:53;13.10;;;4.47;;
71777;SDS011;59609;52.430;4.668;2023-02-10T10:03:47;14.17;;;4.37;;
71777;SDS011;59609;52.430;4.668;2023-02-10T10:06:19;12.35;;;3.92;;
71777;SDS011;59609;52.430;4.668;2023-02-10T10:11:29;9.65;;;3.10;;
71777;SDS011;59609;52.430;4.668;2023-02-10T10:13:55;10.43;;;2.95;;
71777;SDS011;59609;52.430;4.668;2023-02-10T10:18:59;13.30;;;2.72;;
71777;SDS011;59609;52.430;4.668;2023-02-10T10:21:31;11.35;;;2.90;;
71777;SDS011;59609;52.430;4.668;2023-02-10T10:24:07;10.10;;;2.17;;
71777;SDS011;59609;52.430;4.668;2023-02-10T10:31:46;8.85;;;1.83;;
71777;SDS011;59609;52.430;4.668;2023-02-10T10:34:13;12.27;;;2.97;;
71777;SDS011;59609;52.430;4.668;2023-02-10T10:36:47;7.05;;;2.20;;
71777;SDS011;59609;52.430;4.668;2023-02-10T10:39:14;9.18;;;2.30;;
71777;SDS011;59609;52.430;4.668;2023-02-10T10:41:41;7.63;;;2.13;;
71777;SDS011;59609;52.430;4.668;2023-02-10T10:44:08;10.48;;;2.28;;
71777;SDS011;59609;52.430;4.668;2023-02-10T10:46:38;8.68;;;2.40;;
71777;SDS011;59609;52.430;4.668;2023-02-10T10:49:05;12.85;;;3.15;;
71777;SDS011;59609;52.430;4.668;2023-02-10T10:51:30;10.98;;;3.10;;
71777;SDS011;59609;52.430;4.668;2023-02-10T10:53:57;13.40;;;3.47;;
71777;SDS011;59609;52.430;4.668;2023-02-10T10:56:26;12.98;;;3.25;;
71777;SDS011;59609;52.430;4.668;2023-02-10T10:58:54;9.30;;;3.45;;
71777;SDS011;59609;52.430;4.668;2023-02-10T11:01:30;10.70;;;3.20;;
71777;SDS011;59609;52.430;4.668;2023-02-10T11:04:15;10.45;;;3.80;;
71777;SDS011;59609;52.430;4.668;2023-02-10T11:06:42;18.45;;;3.78;;
71777;SDS011;59609;52.430;4.668;2023-02-10T11:11:45;12.88;;;4.05;;
71777;SDS011;59609;52.430;4.668;2023-02-10T11:14:18;11.38;;;2.92;;
71777;SDS011;59609;52.430;4.668;2023-02-10T11:16:53;7.53;;;3.38;;
71777;SDS011;59609;52.430;4.668;2023-02-10T11:19:25;8.93;;;3.08;;
71777;SDS011;59609;52.430;4.668;2023-02-10T11:21:51;11.68;;;3.55;;
71777;SDS011;59609;52.430;4.668;2023-02-10T11:24:22;7.38;;;3.30;;
71777;SDS011;59609;52.430;4.668;2023-02-10T11:26:58;9.00;;;3.40;;
71777;SDS011;59609;52.430;4.668;2023-02-10T11:29:24;9.95;;;3.38;;
71777;SDS011;59609;52.430;4.668;2023-02-10T11:31:50;13.07;;;3.85;;
71777;SDS011;59609;52.430;4.668;2023-02-10T11:34:20;11.30;;;4.30;;
71777;SDS011;59609;52.430;4.668;2023-02-10T11:36:46;9.88;;;3.13;;
71777;SDS011;59609;52.430;4.668;2023-02-10T11:41:43;9.02;;;2.67;;
71777;SDS011;59609;52.430;4.668;2023-02-10T11:44:29;6.03;;;2.80;;
71777;SDS011;59609;52.430;4.668;2023-02-10T11:46:55;8.45;;;3.42;;
71777;SDS011;59609;52.430;4.668;2023-02-10T11:49:21;10.38;;;3.30;;
71777;SDS011;59609;52.430;4.668;2023-02-10T11:51:55;14.03;;;3.33;;
71777;SDS011;59609;52.430;4.668;2023-02-10T11:54:20;9.20;;;2.92;;
71777;SDS011;59609;52.430;4.668;2023-02-10T11:56:58;9.65;;;3.85;;
71777;SDS011;59609;52.430;4.668;2023-02-10T11:59:48;9.93;;;3.03;;
71777;SDS011;59609;52.430;4.668;2023-02-10T12:07:56;10.18;;;3.50;;
71777;SDS011;59609;52.430;4.668;2023-02-10T12:20:29;11.67;;;3.67;;
71777;SDS011;59609;52.430;4.668;2023-02-10T12:28:22;11.90;;;3.95;;
71777;SDS011;59609;52.430;4.668;2023-02-10T12:45:53;10.98;;;4.78;;
71777;SDS011;59609;52.430;4.668;2023-02-10T12:53:17;13.57;;;5.13;;
71777;SDS011;59609;52.430;4.668;2023-02-10T12:58:13;16.57;;;5.93;;
71777;SDS011;59609;52.430;4.668;2023-02-10T13:00:41;16.50;;;4.78;;
71777;SDS011;59609;52.430;4.668;2023-02-10T13:03:10;11.45;;;5.28;;
71777;SDS011;59609;52.430;4.668;2023-02-10T13:06:20;14.40;;;5.85;;
71777;SDS011;59609;52.430;4.668;2023-02-10T13:08:26;16.15;;;6.20;;
71777;SDS011;59609;52.430;4.668;2023-02-10T13:10:59;21.05;;;7.50;;
71777;SDS011;59609;52.430;4.668;2023-02-10T13:13:27;15.68;;;6.13;;
71777;SDS011;59609;52.430;4.668;2023-02-10T13:16:08;16.92;;;6.35;;
71777;SDS011;59609;52.430;4.668;2023-02-10T13:18:37;18.38;;;7.63;;
71777;SDS011;59609;52.430;4.668;2023-02-10T13:21:20;16.65;;;5.85;;
71777;SDS011;59609;52.430;4.668;2023-02-10T13:23:56;14.18;;;5.97;;
71777;SDS011;59609;52.430;4.668;2023-02-10T13:31:45;15.43;;;5.93;;
71777;SDS011;59609;52.430;4.668;2023-02-10T13:34:25;16.58;;;6.72;;
71777;SDS011;59609;52.430;4.668;2023-02-10T13:39:36;14.63;;;5.57;;
71777;SDS011;59609;52.430;4.668;2023-02-10T13:42:07;13.95;;;5.43;;
71777;SDS011;59609;52.430;4.668;2023-02-10T13:44:34;14.18;;;6.05;;
71777;SDS011;59609;52.430;4.668;2023-02-10T13:49:47;19.30;;;6.35;;
71777;SDS011;59609;52.430;4.668;2023-02-10T13:52:18;13.98;;;5.65;;
71777;SDS011;59609;52.430;4.668;2023-02-10T13:54:52;17.77;;;6.68;;
71777;SDS011;59609;52.430;4.668;2023-02-10T13:59:43;11.75;;;6.07;;
71777;SDS011;59609;52.430;4.668;2023-02-10T14:09:49;15.93;;;5.90;;
71777;SDS011;59609;52.430;4.668;2023-02-10T14:12:26;20.27;;;7.80;;
71777;SDS011;59609;52.430;4.668;2023-02-10T14:14:52;15.57;;;5.82;;
71777;SDS011;59609;52.430;4.668;2023-02-10T14:17:21;20.67;;;5.90;;
71777;SDS011;59609;52.430;4.668;2023-02-10T14:19:49;14.32;;;6.07;;
71777;SDS011;59609;52.430;4.668;2023-02-10T14:22:26;14.82;;;5.53;;
71777;SDS011;59609;52.430;4.668;2023-02-10T14:24:55;16.80;;;6.50;;
71777;SDS011;59609;52.430;4.668;2023-02-10T14:27:23;16.73;;;6.18;;
71777;SDS011;59609;52.430;4.668;2023-02-10T14:29:56;20.42;;;6.30;;
71777;SDS011;59609;52.430;4.668;2023-02-10T14:32:21;19.15;;;7.30;;
71777;SDS011;59609;52.430;4.668;2023-02-10T14:34:53;22.40;;;8.53;;
71777;SDS011;59609;52.430;4.668;2023-02-10T14:37:19;19.00;;;7.72;;
71777;SDS011;59609;52.430;4.668;2023-02-10T14:39:50;19.20;;;7.13;;
71777;SDS011;59609;52.430;4.668;2023-02-10T14:42:16;27.73;;;9.48;;
71777;SDS011;59609;52.430;4.668;2023-02-10T14:44:48;27.23;;;7.80;;
71777;SDS011;59609;52.430;4.668;2023-02-10T14:47:17;18.63;;;7.57;;
71777;SDS011;59609;52.430;4.668;2023-02-10T14:49:43;23.42;;;8.30;;
71777;SDS011;59609;52.430;4.668;2023-02-10T14:57:47;20.27;;;7.10;;
71777;SDS011;59609;52.430;4.668;2023-02-10T15:00:12;26.10;;;8.60;;
71777;SDS011;59609;52.430;4.668;2023-02-10T15:02:38;23.30;;;8.15;;
71777;SDS011;59609;52.430;4.668;2023-02-10T15:05:06;20.27;;;8.85;;
71777;SDS011;59609;52.430;4.668;2023-02-10T15:07:33;14.43;;;7.38;;
71777;SDS011;59609;52.430;4.668;2023-02-10T15:10:02;24.02;;;7.97;;
71777;SDS011;59609;52.430;4.668;2023-02-10T15:12:29;24.08;;;9.48;;
71777;SDS011;59609;52.430;4.668;2023-02-10T15:17:34;17.55;;;6.80;;
71777;SDS011;59609;52.430;4.668;2023-02-10T15:20:02;19.67;;;7.55;;
71777;SDS011;59609;52.430;4.668;2023-02-10T15:22:35;14.93;;;7.03;;
71777;SDS011;59609;52.430;4.668;2023-02-10T15:27:44;17.27;;;7.43;;
71777;SDS011;59609;52.430;4.668;2023-02-10T15:30:17;16.10;;;6.40;;
71777;SDS011;59609;52.430;4.668;2023-02-10T15:32:47;23.95;;;8.68;;
71777;SDS011;59609;52.430;4.668;2023-02-10T15:35:13;21.33;;;7.90;;
71777;SDS011;59609;52.430;4.668;2023-02-10T15:37:39;19.13;;;8.20;;
71777;SDS011;59609;52.430;4.668;2023-02-10T15:40:17;21.58;;;7.30;;
71777;SDS011;59609;52.430;4.668;2023-02-10T15:42:43;23.98;;;8.43;;
71777;SDS011;59609;52.430;4.668;2023-02-10T15:45:15;21.63;;;7.97;;
71777;SDS011;59609;52.430;4.668;2023-02-10T15:47:45;17.50;;;8.10;;
71777;SDS011;59609;52.430;4.668;2023-02-10T15:50:12;24.05;;;9.63;;
71777;SDS011;59609;52.430;4.668;2023-02-10T15:52:39;29.00;;;9.32;;
71777;SDS011;59609;52.430;4.668;2023-02-10T15:55:09;27.58;;;8.82;;
71777;SDS011;59609;52.430;4.668;2023-02-10T15:57:34;20.33;;;8.93;;
71777;SDS011;59609;52.430;4.668;2023-02-10T16:00:00;28.13;;;9.97;;
71777;SDS011;59609;52.430;4.668;2023-02-10T16:02:25;31.83;;;8.30;;
71777;SDS011;59609;52.430;4.668;2023-02-10T16:04:51;24.48;;;9.43;;
71777;SDS011;59609;52.430;4.668;2023-02-10T16:07:23;28.08;;;10.25;;
71777;SDS011;59609;52.430;4.668;2023-02-10T16:09:51;24.27;;;9.27;;
71777;SDS011;59609;52.430;4.668;2023-02-10T16:12:16;26.25;;;10.70;;
71777;SDS011;59609;52.430;4.668;2023-02-10T16:14:41;29.17;;;10.30;;
71777;SDS011;59609;52.430;4.668;2023-02-10T16:17:07;25.67;;;9.30;;
71777;SDS011;59609;52.430;4.668;2023-02-10T16:19:32;33.43;;;9.73;;
71777;SDS011;59609;52.430;4.668;2023-02-10T16:21:57;26.57;;;9.33;;
71777;SDS011;59609;52.430;4.668;2023-02-10T16:24:23;27.17;;;10.25;;
71777;SDS011;59609;52.430;4.668;2023-02-10T16:26:49;27.45;;;10.93;;
71777;SDS011;59609;52.430;4.668;2023-02-10T16:29:15;26.10;;;9.37;;
71777;SDS011;59609;52.430;4.668;2023-02-10T16:31:41;24.50;;;9.10;;
71777;SDS011;59609;52.430;4.668;2023-02-10T16:34:07;27.67;;;9.98;;
71777;SDS011;59609;52.430;4.668;2023-02-10T16:36:32;21.92;;;8.77;;
71777;SDS011;59609;52.430;4.668;2023-02-10T16:38:57;21.60;;;8.13;;
71777;SDS011;59609;52.430;4.668;2023-02-10T16:41:22;24.17;;;9.20;;
71777;SDS011;59609;52.430;4.668;2023-02-10T16:43:48;28.05;;;8.85;;
71777;SDS011;59609;52.430;4.668;2023-02-10T16:46:16;24.60;;;9.57;;